WHSE22 YSHW-YSHW
Flight info
| Callsign | WHSE22 |
|---|---|
| Flight time | N/A |
| Altitude | 3500 |
| Route | DCT |
| Aircraft | H64/M-SGRW/S |
Departure
| Time | 2026-04-16 04:48 |
|---|---|
| Airport | Holsworthy (Military) Airport (YSHW) |
Arrival
| Time | N/A |
|---|---|
| Airport | Holsworthy (Military) Airport (YSHW) |
| Time | Latitude | Longitude | Altitude | Speed | Heading |
|---|---|---|---|---|---|
| 2026-04-16 04:37 | -33.99451 | 150.95211 | 246 ft | 0 kts | 122° |
| 2026-04-16 04:45 | -33.99451 | 150.95212 | 248 ft | 0 kts | 123° |
| 2026-04-16 04:45 | -33.99452 | 150.95214 | 248 ft | 1 kts | 123° |
| 2026-04-16 04:45 | -33.99461 | 150.95230 | 247 ft | 3 kts | 152° |
| 2026-04-16 04:46 | -33.99466 | 150.95233 | 247 ft | 0 kts | 192° |
| 2026-04-16 04:46 | -33.99434 | 150.95317 | 426 ft | 27 kts | 37° |
| 2026-04-16 04:47 | -33.99261 | 150.95203 | 316 ft | 27 kts | 326° |
| 2026-04-16 04:47 | -33.99225 | 150.95002 | 296 ft | 22 kts | 298° |
| 2026-04-16 04:47 | -33.99211 | 150.94995 | 289 ft | 7 kts | 341° |
| 2026-04-16 04:47 | -33.99054 | 150.94879 | 415 ft | 58 kts | 335° |
| 2026-04-16 04:48 | -33.98586 | 150.94430 | 364 ft | 106 kts | 318° |
| 2026-04-16 04:48 | -33.98029 | 150.93778 | 583 ft | 116 kts | 313° |
| 2026-04-16 04:48 | -33.97411 | 150.93050 | 732 ft | 137 kts | 315° |
| 2026-04-16 04:48 | -33.96576 | 150.92163 | 345 ft | 174 kts | 315° |
| 2026-04-16 04:49 | -33.96009 | 150.91502 | 297 ft | 165 kts | 313° |
| 2026-04-16 04:49 | -33.95251 | 150.90671 | 493 ft | 135 kts | 316° |
| 2026-04-16 04:49 | -33.94675 | 150.89809 | 665 ft | 133 kts | 293° |
| 2026-04-16 04:49 | -33.94369 | 150.88746 | 774 ft | 137 kts | 287° |
| 2026-04-16 04:50 | -33.94089 | 150.87615 | 766 ft | 148 kts | 282° |
| 2026-04-16 04:50 | -33.93964 | 150.86378 | 809 ft | 146 kts | 270° |
| 2026-04-16 04:50 | -33.93894 | 150.85164 | 786 ft | 156 kts | 270° |
| 2026-04-16 04:50 | -33.93855 | 150.83781 | 568 ft | 168 kts | 270° |
| 2026-04-16 04:51 | -33.93879 | 150.82436 | 668 ft | 153 kts | 265° |
| 2026-04-16 04:51 | -33.93977 | 150.81176 | 696 ft | 151 kts | 264° |
| 2026-04-16 04:51 | -33.94048 | 150.79903 | 663 ft | 153 kts | 264° |
| 2026-04-16 04:51 | -33.94141 | 150.78624 | 624 ft | 153 kts | 263° |
| 2026-04-16 04:52 | -33.94283 | 150.77383 | 598 ft | 152 kts | 262° |
| 2026-04-16 04:52 | -33.94346 | 150.76077 | 484 ft | 155 kts | 265° |
| 2026-04-16 04:52 | -33.94455 | 150.74798 | 481 ft | 155 kts | 264° |
| 2026-04-16 04:52 | -33.94558 | 150.73516 | 465 ft | 153 kts | 264° |
| 2026-04-16 04:53 | -33.94643 | 150.72346 | 697 ft | 130 kts | 264° |
| 2026-04-16 04:53 | -33.94677 | 150.71271 | 811 ft | 104 kts | 269° |
| 2026-04-16 04:53 | -33.94632 | 150.70328 | 655 ft | 143 kts | 269° |
| 2026-04-16 04:53 | -33.94662 | 150.69120 | 619 ft | 145 kts | 264° |
| 2026-04-16 04:54 | -33.94745 | 150.67895 | 557 ft | 150 kts | 265° |
| 2026-04-16 04:54 | -33.94863 | 150.66639 | 467 ft | 153 kts | 262° |
| 2026-04-16 04:54 | -33.95042 | 150.65361 | 391 ft | 154 kts | 258° |
| 2026-04-16 04:54 | -33.95238 | 150.64127 | 476 ft | 144 kts | 260° |
| 2026-04-16 04:55 | -33.95370 | 150.62942 | 571 ft | 144 kts | 264° |
| 2026-04-16 04:55 | -33.95479 | 150.61783 | 662 ft | 139 kts | 258° |
| 2026-04-16 04:55 | -33.95623 | 150.60618 | 714 ft | 140 kts | 258° |
| 2026-04-16 04:55 | -33.95738 | 150.59482 | 810 ft | 128 kts | 262° |
| 2026-04-16 04:56 | -33.95819 | 150.58453 | 1003 ft | 124 kts | 266° |
| 2026-04-16 04:56 | -33.95910 | 150.57425 | 1118 ft | 122 kts | 262° |
| 2026-04-16 04:56 | -33.95936 | 150.56378 | 1180 ft | 127 kts | 266° |
| 2026-04-16 04:56 | -33.95956 | 150.55319 | 1249 ft | 134 kts | 269° |
| 2026-04-16 04:57 | -33.95986 | 150.54175 | 1281 ft | 136 kts | 265° |
| 2026-04-16 04:57 | -33.96027 | 150.53053 | 1379 ft | 131 kts | 273° |
| 2026-04-16 04:57 | -33.95842 | 150.52009 | 1534 ft | 130 kts | 284° |
| 2026-04-16 04:57 | -33.95513 | 150.50912 | 1481 ft | 145 kts | 287° |
| 2026-04-16 04:58 | -33.95346 | 150.49696 | 1352 ft | 158 kts | 262° |
| 2026-04-16 04:58 | -33.95658 | 150.48369 | 1081 ft | 169 kts | 249° |
| 2026-04-16 04:58 | -33.95853 | 150.47017 | 873 ft | 161 kts | 279° |
| 2026-04-16 04:58 | -33.95392 | 150.45814 | 630 ft | 167 kts | 297° |
| 2026-04-16 04:59 | -33.94877 | 150.44570 | 417 ft | 163 kts | 290° |
| 2026-04-16 04:59 | -33.94466 | 150.43364 | 508 ft | 149 kts | 291° |
| 2026-04-16 04:59 | -33.94071 | 150.42241 | 577 ft | 143 kts | 290° |
| 2026-04-16 04:59 | -33.93706 | 150.41168 | 765 ft | 130 kts | 290° |
| 2026-04-16 05:00 | -33.93319 | 150.40161 | 763 ft | 140 kts | 295° |
| 2026-04-16 05:00 | -33.92697 | 150.39226 | 675 ft | 147 kts | 306° |
| 2026-04-16 05:00 | -33.92128 | 150.38213 | 733 ft | 139 kts | 295° |
| 2026-04-16 05:00 | -33.91878 | 150.37154 | 1027 ft | 134 kts | 276° |
| 2026-04-16 05:01 | -33.91774 | 150.36008 | 1023 ft | 137 kts | 275° |
| 2026-04-16 05:01 | -33.91688 | 150.34840 | 1008 ft | 146 kts | 267° |
| 2026-04-16 05:01 | -33.91686 | 150.33592 | 969 ft | 148 kts | 267° |
| 2026-04-16 05:01 | -33.91612 | 150.32410 | 1259 ft | 139 kts | 273° |
| 2026-04-16 05:02 | -33.91457 | 150.31234 | 1383 ft | 146 kts | 272° |
| 2026-04-16 05:02 | -33.91367 | 150.30010 | 1463 ft | 141 kts | 272° |
| 2026-04-16 05:02 | -33.91102 | 150.28983 | 1879 ft | 119 kts | 290° |
| 2026-04-16 05:02 | -33.90721 | 150.28039 | 2011 ft | 127 kts | 291° |
| 2026-04-16 05:03 | -33.90314 | 150.27032 | 2073 ft | 135 kts | 287° |
| 2026-04-16 05:03 | -33.89916 | 150.26044 | 2251 ft | 137 kts | 289° |
| 2026-04-16 05:03 | -33.89355 | 150.24907 | 1632 ft | 176 kts | 297° |
| 2026-04-16 05:04 | -33.88473 | 150.23396 | 1678 ft | 156 kts | 313° |
| 2026-04-16 05:04 | -33.87671 | 150.22824 | 2262 ft | 119 kts | 330° |
| 2026-04-16 05:04 | -33.86872 | 150.22509 | 2485 ft | 115 kts | 333° |
| 2026-04-16 05:04 | -33.86325 | 150.22161 | 3002 ft | 87 kts | 300° |
| 2026-04-16 05:05 | -33.85908 | 150.21423 | 2899 ft | 124 kts | 298° |
| 2026-04-16 05:05 | -33.85354 | 150.20542 | 2841 ft | 147 kts | 299° |
| 2026-04-16 05:05 | -33.84647 | 150.19445 | 2390 ft | 175 kts | 306° |
| 2026-04-16 05:05 | -33.83817 | 150.18418 | 2358 ft | 172 kts | 309° |
| 2026-04-16 05:06 | -33.82983 | 150.17381 | 2123 ft | 171 kts | 304° |
| 2026-04-16 05:06 | -33.82189 | 150.16477 | 2429 ft | 148 kts | 311° |
| 2026-04-16 05:06 | -33.81424 | 150.15636 | 2592 ft | 142 kts | 310° |
| 2026-04-16 05:06 | -33.80818 | 150.14849 | 2951 ft | 119 kts | 304° |
| 2026-04-16 05:07 | -33.80250 | 150.14115 | 3154 ft | 121 kts | 306° |
| 2026-04-16 05:07 | -33.79678 | 150.13332 | 3302 ft | 128 kts | 307° |
| 2026-04-16 05:07 | -33.79045 | 150.12526 | 3370 ft | 135 kts | 308° |
| 2026-04-16 05:07 | -33.78392 | 150.11730 | 3467 ft | 136 kts | 314° |
| 2026-04-16 05:08 | -33.77710 | 150.10969 | 3614 ft | 130 kts | 316° |
| 2026-04-16 05:08 | -33.76945 | 150.10401 | 3791 ft | 132 kts | 321° |
| 2026-04-16 05:08 | -33.76204 | 150.09725 | 3916 ft | 136 kts | 320° |
| 2026-04-16 05:08 | -33.75664 | 150.08910 | 4187 ft | 118 kts | 280° |
| 2026-04-16 05:09 | -33.75137 | 150.08114 | 4287 ft | 131 kts | 309° |
| 2026-04-16 05:09 | -33.74290 | 150.07591 | 3919 ft | 167 kts | 349° |
| 2026-04-16 05:09 | -33.73147 | 150.07430 | 4028 ft | 150 kts | 347° |
| 2026-04-16 05:09 | -33.72280 | 150.07051 | 4397 ft | 115 kts | 288° |
| 2026-04-16 05:10 | -33.72456 | 150.06947 | 4213 ft | 73 kts | 356° |
| 2026-04-16 05:10 | -33.71831 | 150.06464 | 3998 ft | 128 kts | 314° |
| 2026-04-16 05:10 | -33.71136 | 150.05770 | 4180 ft | 128 kts | 313° |
| 2026-04-16 05:10 | -33.70418 | 150.05107 | 4316 ft | 132 kts | 315° |
| 2026-04-16 05:11 | -33.69684 | 150.04378 | 4402 ft | 138 kts | 313° |
| 2026-04-16 05:11 | -33.68921 | 150.03607 | 4467 ft | 147 kts | 313° |
| 2026-04-16 05:11 | -33.68123 | 150.02943 | 4661 ft | 146 kts | 322° |
| 2026-04-16 05:11 | -33.67335 | 150.02260 | 4738 ft | 118 kts | 315° |
| 2026-04-16 05:12 | -33.66730 | 150.01802 | 4648 ft | 100 kts | 315° |
| 2026-04-16 05:12 | -33.66159 | 150.01256 | 4453 ft | 109 kts | 312° |
| 2026-04-16 05:12 | -33.65597 | 150.00707 | 4448 ft | 96 kts | 306° |
| 2026-04-16 05:12 | -33.65060 | 150.00079 | 4463 ft | 126 kts | 310° |
| 2026-04-16 05:13 | -33.64406 | 149.99228 | 4263 ft | 153 kts | 306° |
| 2026-04-16 05:13 | -33.63667 | 149.98253 | 4221 ft | 170 kts | 310° |
| 2026-04-16 05:13 | -33.62910 | 149.97374 | 4579 ft | 145 kts | 308° |
| 2026-04-16 05:13 | -33.62142 | 149.96641 | 4657 ft | 144 kts | 326° |
| 2026-04-16 05:14 | -33.61433 | 149.96034 | 4741 ft | 113 kts | 301° |
| 2026-04-16 05:14 | -33.61108 | 149.95238 | 4624 ft | 84 kts | 329° |
| 2026-04-16 05:14 | -33.60762 | 149.95311 | 4399 ft | 85 kts | 350° |
| 2026-04-16 05:14 | -33.60126 | 149.94752 | 4186 ft | 139 kts | 307° |
| 2026-04-16 05:15 | -33.59499 | 149.93823 | 4430 ft | 135 kts | 301° |
| 2026-04-16 05:15 | -33.58895 | 149.92949 | 4486 ft | 125 kts | 302° |
| 2026-04-16 05:15 | -33.58336 | 149.92393 | 4544 ft | 98 kts | 307° |
| 2026-04-16 05:15 | -33.57817 | 149.91915 | 4439 ft | 92 kts | 313° |
| 2026-04-16 05:16 | -33.57239 | 149.91320 | 4344 ft | 117 kts | 309° |
| 2026-04-16 05:16 | -33.56643 | 149.90686 | 4574 ft | 113 kts | 305° |
| 2026-04-16 05:16 | -33.56188 | 149.89883 | 4491 ft | 125 kts | 293° |
| 2026-04-16 05:16 | -33.55735 | 149.89040 | 4518 ft | 98 kts | 298° |
| 2026-04-16 05:17 | -33.55342 | 149.88374 | 4433 ft | 101 kts | 297° |
| 2026-04-16 05:17 | -33.54986 | 149.87686 | 4503 ft | 96 kts | 294° |
| 2026-04-16 05:17 | -33.54535 | 149.86892 | 4334 ft | 126 kts | 296° |
| 2026-04-16 05:17 | -33.54089 | 149.86020 | 4425 ft | 119 kts | 290° |
| 2026-04-16 05:18 | -33.53691 | 149.85158 | 4511 ft | 119 kts | 289° |
| 2026-04-16 05:18 | -33.53248 | 149.84300 | 4457 ft | 126 kts | 299° |
| 2026-04-16 05:18 | -33.52824 | 149.83489 | 4404 ft | 111 kts | 292° |
| 2026-04-16 05:18 | -33.52453 | 149.82688 | 4392 ft | 112 kts | 293° |
| 2026-04-16 05:19 | -33.52029 | 149.81905 | 4419 ft | 111 kts | 304° |
| 2026-04-16 05:19 | -33.51603 | 149.81048 | 4479 ft | 127 kts | 292° |
| 2026-04-16 05:19 | -33.51211 | 149.80104 | 4445 ft | 129 kts | 292° |
| 2026-04-16 05:19 | -33.50782 | 149.79309 | 4453 ft | 109 kts | 295° |
| 2026-04-16 05:20 | -33.50360 | 149.78527 | 4372 ft | 112 kts | 299° |
| 2026-04-16 05:20 | -33.49968 | 149.77735 | 4455 ft | 113 kts | 297° |
| 2026-04-16 05:20 | -33.49569 | 149.76844 | 4255 ft | 127 kts | 290° |
| 2026-04-16 05:20 | -33.49145 | 149.75966 | 3707 ft | 112 kts | 304° |
| 2026-04-16 05:21 | -33.48682 | 149.75305 | 3559 ft | 108 kts | 300° |
| 2026-04-16 05:21 | -33.48282 | 149.74492 | 3395 ft | 109 kts | 294° |
| 2026-04-16 05:21 | -33.47956 | 149.73734 | 3432 ft | 115 kts | 297° |
| 2026-04-16 05:21 | -33.47529 | 149.72826 | 3431 ft | 130 kts | 294° |
| 2026-04-16 05:22 | -33.47049 | 149.71889 | 3491 ft | 134 kts | 299° |
| 2026-04-16 05:22 | -33.46547 | 149.70958 | 3587 ft | 135 kts | 294° |
| 2026-04-16 05:22 | -33.46057 | 149.69951 | 3566 ft | 142 kts | 297° |
| 2026-04-16 05:22 | -33.45563 | 149.68967 | 3582 ft | 130 kts | 298° |
| 2026-04-16 05:23 | -33.45094 | 149.68145 | 3630 ft | 104 kts | 307° |
| 2026-04-16 05:23 | -33.44609 | 149.67396 | 3281 ft | 123 kts | 302° |
| 2026-04-16 05:23 | -33.44076 | 149.66606 | 3061 ft | 116 kts | 304° |
| 2026-04-16 05:23 | -33.43572 | 149.65993 | 3031 ft | 92 kts | 308° |
| 2026-04-16 05:24 | -33.43186 | 149.65522 | 2988 ft | 76 kts | 320° |
| 2026-04-16 05:24 | -33.42692 | 149.65269 | 2800 ft | 77 kts | 336° |
| 2026-04-16 05:24 | -33.42211 | 149.65246 | 2678 ft | 65 kts | 352° |
| 2026-04-16 05:24 | -33.41888 | 149.65248 | 2556 ft | 40 kts | 352° |
| 2026-04-16 05:25 | -33.41616 | 149.65211 | 2481 ft | 37 kts | 345° |
| 2026-04-16 05:25 | -33.41420 | 149.65191 | 2427 ft | 15 kts | 356° |
| 2026-04-16 05:25 | -33.41365 | 149.65176 | 2426 ft | 5 kts | 352° |
| 2026-04-16 05:25 | -33.41312 | 149.65173 | 2482 ft | 31 kts | 354° |
| 2026-04-16 05:26 | -33.40794 | 149.65144 | 2482 ft | 99 kts | 352° |
| 2026-04-16 05:26 | -33.40052 | 149.65219 | 2907 ft | 103 kts | 31° |
| 2026-04-16 05:26 | -33.40008 | 149.66064 | 3134 ft | 111 kts | 128° |
| 2026-04-16 05:26 | -33.40618 | 149.66546 | 3301 ft | 113 kts | 169° |
| 2026-04-16 05:27 | -33.41502 | 149.66829 | 3109 ft | 146 kts | 170° |
| 2026-04-16 05:27 | -33.42459 | 149.66622 | 2965 ft | 145 kts | 225° |
| 2026-04-16 05:27 | -33.42847 | 149.65596 | 3004 ft | 138 kts | 277° |
| 2026-04-16 05:27 | -33.42056 | 149.65137 | 2722 ft | 132 kts | 357° |
| 2026-04-16 05:28 | -33.41413 | 149.65160 | 2562 ft | 54 kts | 347° |
| 2026-04-16 05:28 | -33.41189 | 149.65192 | 2447 ft | 21 kts | 348° |
| 2026-04-16 05:28 | -33.41012 | 149.65162 | 2434 ft | 24 kts | 340° |
| 2026-04-16 05:28 | -33.40873 | 149.65147 | 2415 ft | 11 kts | 348° |
| 2026-04-16 05:29 | -33.40851 | 149.65134 | 2406 ft | 1 kts | 359° |
| 2026-04-16 05:29 | -33.40815 | 149.65130 | 2516 ft | 32 kts | 9° |
| 2026-04-16 05:29 | -33.40244 | 149.65152 | 2663 ft | 107 kts | 353° |
| 2026-04-16 05:29 | -33.39579 | 149.65411 | 2846 ft | 108 kts | 77° |
| 2026-04-16 05:30 | -33.39683 | 149.66004 | 3377 ft | 58 kts | 141° |
| 2026-04-16 05:30 | -33.40078 | 149.66197 | 3317 ft | 98 kts | 181° |
| 2026-04-16 05:30 | -33.40874 | 149.66402 | 3117 ft | 137 kts | 170° |
| 2026-04-16 05:30 | -33.41812 | 149.66700 | 3222 ft | 139 kts | 173° |
| 2026-04-16 05:31 | -33.42703 | 149.66534 | 3347 ft | 130 kts | 213° |
| 2026-04-16 05:31 | -33.42842 | 149.65587 | 3203 ft | 131 kts | 288° |
| 2026-04-16 05:31 | -33.42065 | 149.65190 | 2697 ft | 121 kts | 352° |
| 2026-04-16 05:31 | -33.41441 | 149.65165 | 2499 ft | 50 kts | 343° |
| 2026-04-16 05:32 | -33.41192 | 149.65163 | 2436 ft | 33 kts | 345° |
| 2026-04-16 05:32 | -33.40955 | 149.65141 | 2425 ft | 36 kts | 351° |
| 2026-04-16 05:32 | -33.40705 | 149.65133 | 2448 ft | 29 kts | 79° |
| 2026-04-16 05:32 | -33.40634 | 149.65313 | 2462 ft | 25 kts | 140° |
| 2026-04-16 05:33 | -33.40678 | 149.65565 | 2575 ft | 34 kts | 105° |
| 2026-04-16 05:33 | -33.40703 | 149.65806 | 2498 ft | 21 kts | 103° |
| 2026-04-16 05:33 | -33.40649 | 149.65966 | 2475 ft | 25 kts | 104° |
| 2026-04-16 05:33 | -33.40576 | 149.65984 | 2503 ft | 3 kts | 100° |
| 2026-04-16 05:34 | -33.40587 | 149.66000 | 2461 ft | 2 kts | 105° |
| 2026-04-16 05:34 | -33.40591 | 149.66020 | 2415 ft | 2 kts | 103° |
| 2026-04-16 05:34 | -33.40593 | 149.66025 | 2416 ft | 0 kts | 102° |